Wan Hai 508 — 9VJJ6 — position and weather

sailwx.info

Track history (hours):
 
Tides and Currents Weather Stations Pressure Air Temp Water Temp Dewpoint Dewpoint Depression Visibility Wind Speed Wind Dir Waves Ship Positions

Wan Hai 508

Last reported at 2017-Mar-23 16:18 UTC. Time now 2017-Mar-27 12:44 UTC.
Position N 01°55' E 102°21'.

Length 269 m; draft 11.1 m.

Type: Cargo ship. MMSI: 565567000.

Date/timePositionNaut miles runAvg speedWind from/ knotsBaromVisibWave heightAir tempDewpointWater temp
2017-Mar-23 16:18N 01°55' E 102°21'1215.9
2017-Mar-23 15:33N 01°50' E 102°32'1615.9
2017-Mar-23 14:33N 01°43' E 102°46'4715.0
2017-Mar-23 11:27N 01°16' E 103°24'1314.3
2017-Mar-23 10:33N 01°12' E 103°36'9 9.4
2017-Mar-23 09:34N 01°16' E 103°44'2 2.0
2017-Mar-23 08:33N 01°17' E 103°46'0 0.0
2017-Mar-23 07:33N 01°17' E 103°46'0 0.0
2017-Mar-23 06:33N 01°17' E 103°46'0 0.0
2017-Mar-23 05:33N 01°17' E 103°46'0 0.0
2017-Mar-23 04:33N 01°17' E 103°46'0 0.0
2017-Mar-23 03:33N 01°17' E 103°46'0 0.0
2017-Mar-23 02:33N 01°17' E 103°46'0 0.0
2017-Mar-23 01:33N 01°17' E 103°46'0 0.0
2017-Mar-23 00:27N 01°17' E 103°46'0 0.0
2017-Mar-22 23:33N 01°17' E 103°46'0 0.0
2017-Mar-22 22:30N 01°17' E 103°46'0 0.0
2017-Mar-22 21:33N 01°17' E 103°46'0 0.0
2017-Mar-22 20:33N 01°17' E 103°46'3 3.5
2017-Mar-22 19:33N 01°14' E 103°47'4 4.0
2017-Mar-22 18:33N 01°16' E 103°50'0 0.0
2017-Mar-22 17:30N 01°16' E 103°50'0 0.0
2017-Mar-22 16:30N 01°16' E 103°50'0 0.0
2017-Mar-22 15:33N 01°16' E 103°50'0 0.0
2017-Mar-22 14:30N 01°16' E 103°50'0 0.0
2017-Mar-22 13:30N 01°16' E 103°50'0 0.0
2017-Mar-22 12:33N 01°16' E 103°50'0 0.0
2017-Mar-22 11:33N 01°16' E 103°50'0 0.0
2017-Mar-22 10:33N 01°16' E 103°50'0 0.0
2017-Mar-22 09:30N 01°16' E 103°50'0 0.0
2017-Mar-22 08:30N 01°16' E 103°50'0 0.0
2017-Mar-22 07:30N 01°16' E 103°50'0 0.0
2017-Mar-22 06:30N 01°16' E 103°50'3 3.5
2017-Mar-22 05:33N 01°14' E 103°53'4 4.3
2017-Mar-22 04:33N 01°11' E 103°51'1010.3
2017-Mar-22 03:33N 01°05' E 103°42'6 6.4
2017-Mar-22 02:34N 01°04' E 103°36'3 2.9
2017-Mar-22 01:32N 01°06' E 103°33'6 5.7
2017-Mar-22 00:33N 01°09' E 103°28'4618.7
2017-Mar-21 22:06N 01°36' E 102°52'3018.9
2017-Mar-21 20:31N 01°47' E 102°24'  
Track history (hours):
 
Tides and Currents Weather Stations Pressure Air Temp Water Temp Dewpoint Dewpoint Depression Visibility Wind Speed Wind Dir Waves Ship Positions

Wan Hai 508

Last reported at 2017-Mar-23 16:18 UTC. Time now 2017-Mar-27 12:44 UTC.
Position N 01°55' E 102°21'.

Length 269 m; draft 11.1 m.

Type: Cargo ship. MMSI: 565567000.

Date/timePositionNaut miles runAvg speedWind from/ knotsBaromVisibWave heightAir tempDewpointWater temp
2017-Mar-23 16:18N 01°55' E 102°21'1215.9
2017-Mar-23 15:33N 01°50' E 102°32'1615.9
2017-Mar-23 14:33N 01°43' E 102°46'4715.0
2017-Mar-23 11:27N 01°16' E 103°24'1314.3
2017-Mar-23 10:33N 01°12' E 103°36'9 9.4
2017-Mar-23 09:34N 01°16' E 103°44'2 2.0
2017-Mar-23 08:33N 01°17' E 103°46'0 0.0
2017-Mar-23 07:33N 01°17' E 103°46'0 0.0
2017-Mar-23 06:33N 01°17' E 103°46'0 0.0
2017-Mar-23 05:33N 01°17' E 103°46'0 0.0
2017-Mar-23 04:33N 01°17' E 103°46'0 0.0
2017-Mar-23 03:33N 01°17' E 103°46'0 0.0
2017-Mar-23 02:33N 01°17' E 103°46'0 0.0
2017-Mar-23 01:33N 01°17' E 103°46'0 0.0
2017-Mar-23 00:27N 01°17' E 103°46'0 0.0
2017-Mar-22 23:33N 01°17' E 103°46'0 0.0
2017-Mar-22 22:30N 01°17' E 103°46'0 0.0
2017-Mar-22 21:33N 01°17' E 103°46'0 0.0
2017-Mar-22 20:33N 01°17' E 103°46'3 3.5
2017-Mar-22 19:33N 01°14' E 103°47'4 4.0
2017-Mar-22 18:33N 01°16' E 103°50'0 0.0
2017-Mar-22 17:30N 01°16' E 103°50'0 0.0
2017-Mar-22 16:30N 01°16' E 103°50'0 0.0
2017-Mar-22 15:33N 01°16' E 103°50'0 0.0
2017-Mar-22 14:30N 01°16' E 103°50'0 0.0
2017-Mar-22 13:30N 01°16' E 103°50'0 0.0
2017-Mar-22 12:33N 01°16' E 103°50'0 0.0
2017-Mar-22 11:33N 01°16' E 103°50'0 0.0
2017-Mar-22 10:33N 01°16' E 103°50'0 0.0
2017-Mar-22 09:30N 01°16' E 103°50'0 0.0
2017-Mar-22 08:30N 01°16' E 103°50'0 0.0
2017-Mar-22 07:30N 01°16' E 103°50'0 0.0
2017-Mar-22 06:30N 01°16' E 103°50'3 3.5
2017-Mar-22 05:33N 01°14' E 103°53'4 4.3
2017-Mar-22 04:33N 01°11' E 103°51'1010.3
2017-Mar-22 03:33N 01°05' E 103°42'6 6.4
2017-Mar-22 02:34N 01°04' E 103°36'3 2.9
2017-Mar-22 01:32N 01°06' E 103°33'6 5.7
2017-Mar-22 00:33N 01°09' E 103°28'4618.7
2017-Mar-21 22:06N 01°36' E 102°52'3018.9
2017-Mar-21 20:31N 01°47' E 102°24'  

Dump ship's entire track history